createdAt,value
2022-08-26T00:04:38.591Z,13.18
2022-08-26T00:09:42.612Z,9.35
2022-08-26T00:14:49.166Z,11.70
2022-08-26T00:19:53.776Z,9.93
2022-08-26T00:24:58.606Z,13.48
2022-08-26T00:30:06.846Z,9.23
2022-08-26T00:35:13.289Z,15.55
2022-08-26T00:40:22.632Z,15.35
2022-08-26T00:45:27.387Z,12.07
2022-08-26T00:50:32.603Z,10.88
2022-08-26T00:55:39.995Z,13.10
2022-08-26T01:00:45.248Z,15.52
2022-08-26T01:05:51.930Z,15.60
2022-08-26T01:10:59.859Z,13.27
2022-08-26T01:16:06.368Z,21.08
2022-08-26T01:21:18.132Z,11.38
2022-08-26T01:26:29.768Z,14.02
2022-08-26T01:31:46.432Z,13.38
2022-08-26T01:36:52.773Z,11.95
2022-08-26T01:42:02.909Z,12.57
2022-08-26T01:47:07.784Z,12.82
2022-08-26T01:52:14.516Z,12.40
2022-08-26T01:57:17.022Z,13.57
2022-08-26T02:02:21.958Z,14.15
2022-08-26T02:07:27.352Z,15.25
2022-08-26T02:12:30.787Z,12.73
2022-08-26T02:17:41.045Z,18.42
2022-08-26T02:22:45.239Z,20.52
2022-08-26T02:27:47.650Z,22.25
2022-08-26T02:32:52.157Z,14.82
2022-08-26T02:37:59.199Z,18.63
2022-08-26T02:43:01.065Z,15.43
2022-08-26T02:48:13.606Z,16.40
2022-08-26T02:53:25.090Z,19.50
2022-08-26T02:58:30.211Z,18.05
2022-08-26T03:03:33.752Z,17.10
2022-08-26T03:08:36.493Z,13.75
2022-08-26T03:13:39.908Z,16.45
2022-08-26T03:18:42.010Z,20.17
2022-08-26T03:23:46.338Z,19.52
2022-08-26T03:29:06.534Z,19.75
2022-08-26T03:34:11.260Z,19.90
2022-08-26T03:39:16.104Z,20.65
2022-08-26T03:44:22.098Z,21.65
2022-08-26T03:49:32.170Z,23.20
2022-08-26T03:54:36.582Z,18.97
2022-08-26T03:59:41.953Z,17.10
2022-08-26T04:04:50.386Z,15.55
2022-08-26T04:10:02.162Z,17.08
2022-08-26T04:15:12.547Z,18.05
2022-08-26T04:20:16.236Z,15.88
2022-08-26T04:25:21.289Z,15.57
2022-08-26T04:30:32.417Z,18.92
2022-08-26T04:35:37.116Z,21.77
2022-08-26T04:40:46.901Z,16.88
2022-08-26T04:45:50.816Z,20.30
2022-08-26T04:50:55.854Z,16.10
2022-08-26T04:55:57.557Z,16.00
2022-08-26T05:00:59.865Z,17.67
2022-08-26T05:06:05.510Z,17.67
2022-08-26T05:11:07.813Z,15.85
2022-08-26T05:16:13.919Z,19.05
2022-08-26T05:21:23.605Z,17.00
2022-08-26T05:26:29.335Z,20.95
2022-08-26T05:31:32.336Z,21.15
2022-08-26T05:36:35.715Z,19.83
2022-08-26T05:41:42.948Z,21.35
2022-08-26T05:46:51.252Z,21.48
2022-08-26T05:51:53.060Z,18.10
2022-08-26T05:56:54.761Z,24.13
2022-08-26T06:01:57.671Z,22.77
2022-08-26T06:07:01.048Z,21.65
2022-08-26T06:12:04.059Z,23.58
2022-08-26T06:17:11.047Z,25.92
2022-08-26T06:22:35.410Z,23.08
2022-08-26T06:27:42.552Z,21.02
2022-08-26T06:32:49.447Z,21.90
2022-08-26T06:37:53.443Z,25.95
2022-08-26T06:42:58.017Z,28.08
2022-08-26T06:48:02.163Z,25.63
2022-08-26T06:53:04.662Z,21.83
2022-08-26T06:58:09.450Z,27.60
2022-08-26T07:03:16.184Z,23.65
2022-08-26T07:08:22.342Z,23.88
2022-08-26T07:13:30.673Z,29.02
2022-08-26T07:18:36.897Z,23.55
2022-08-26T07:23:46.976Z,23.75
2022-08-26T07:28:51.364Z,21.75
2022-08-26T07:33:59.947Z,20.95
2022-08-26T07:39:06.941Z,26.15
2022-08-26T07:44:11.009Z,21.42
2022-08-26T07:49:23.076Z,21.33
2022-08-26T07:54:27.336Z,28.27
2022-08-26T07:59:31.843Z,22.77
2022-08-26T08:04:38.536Z,27.08
2022-08-26T08:09:45.371Z,21.88
2022-08-26T08:14:50.257Z,20.15
2022-08-26T08:19:57.474Z,21.60
2022-08-26T08:25:00.944Z,29.15
2022-08-26T08:30:10.850Z,21.27
2022-08-26T08:35:17.473Z,23.65
2022-08-26T08:40:21.815Z,22.33
2022-08-26T08:45:41.960Z,26.17
2022-08-26T08:50:49.431Z,22.35
2022-08-26T08:56:08.713Z,25.50
2022-08-26T09:01:22.941Z,21.83
2022-08-26T09:06:27.769Z,27.27
2022-08-26T09:11:30.254Z,21.60
2022-08-26T09:16:59.425Z,23.55
2022-08-26T09:22:05.779Z,22.85
2022-08-26T09:27:36.574Z,30.85
2022-08-26T09:32:44.121Z,30.58
2022-08-26T09:38:00.864Z,23.23
2022-08-26T09:43:06.614Z,19.67
2022-08-26T09:48:14.241Z,20.77
2022-08-26T09:53:28.456Z,23.88
2022-08-26T09:58:39.513Z,25.98
2022-08-26T10:03:45.822Z,28.83
2022-08-26T10:08:55.307Z,27.77
2022-08-26T10:14:08.452Z,29.42
2022-08-26T10:19:15.852Z,28.60
2022-08-26T10:24:26.783Z,30.60
2022-08-26T10:29:34.333Z,30.65
2022-08-26T10:34:38.656Z,30.75
2022-08-26T10:39:51.881Z,30.33
2022-08-26T10:45:11.965Z,33.03
2022-08-26T10:50:23.208Z,53.67
2022-08-26T10:55:36.054Z,28.45
2022-08-26T11:01:01.261Z,30.08
2022-08-26T11:06:19.087Z,27.05
2022-08-26T11:11:42.375Z,36.63
2022-08-26T11:16:49.756Z,34.83
2022-08-26T11:22:33.058Z,42.92
2022-08-26T11:27:41.565Z,35.33
2022-08-26T11:33:00.166Z,33.97
2022-08-26T11:38:25.586Z,36.80
2022-08-26T11:43:30.259Z,34.13
2022-08-26T11:48:39.972Z,34.95
2022-08-26T11:53:47.499Z,36.67
2022-08-26T11:58:49.934Z,32.90
2022-08-26T12:03:52.591Z,30.00
2022-08-26T12:09:02.352Z,23.10
2022-08-26T12:14:09.019Z,29.50
2022-08-26T12:19:32.842Z,33.55
2022-08-26T12:24:43.851Z,32.67
2022-08-26T12:30:10.138Z,29.70
2022-08-26T12:35:16.858Z,26.33
2022-08-26T12:40:33.005Z,34.05
2022-08-26T12:45:43.121Z,33.13
2022-08-26T12:50:50.541Z,20.42
2022-08-26T12:56:00.238Z,28.25
2022-08-26T13:01:08.377Z,24.98
2022-08-26T13:06:25.916Z,26.30
2022-08-26T13:11:29.140Z,26.95
2022-08-26T13:16:33.880Z,25.25
2022-08-26T13:21:43.021Z,31.63
2022-08-26T13:26:46.552Z,40.00
2022-08-26T13:31:51.942Z,43.88
2022-08-26T13:36:56.279Z,31.65
2022-08-26T13:41:58.355Z,36.70
2022-08-26T13:47:00.165Z,25.88
2022-08-26T13:52:03.695Z,29.10
2022-08-26T13:57:08.158Z,27.58
2022-08-26T14:02:10.046Z,23.95
2022-08-26T14:07:11.926Z,23.55
2022-08-26T14:12:16.623Z,22.85
2022-08-26T14:17:21.377Z,19.52
2022-08-26T14:22:23.185Z,18.25
2022-08-26T14:27:25.510Z,19.30
2022-08-26T14:32:29.984Z,17.67
2022-08-26T14:37:32.850Z,21.42
2022-08-26T14:42:34.834Z,16.73
2022-08-26T14:47:41.470Z,18.48
2022-08-26T14:53:08.131Z,14.07
2022-08-26T14:58:13.728Z,15.20
2022-08-26T15:08:24.568Z,10.57
2022-08-26T15:13:26.372Z,13.40
2022-08-26T15:18:31.708Z,10.27
2022-08-26T15:23:39.321Z,11.88
2022-08-26T15:28:53.084Z,8.23
2022-08-26T15:33:56.446Z,9.07
2022-08-26T15:39:00.290Z,9.70
2022-08-26T15:44:03.668Z,8.88
2022-08-26T15:49:08.088Z,8.52
2022-08-26T15:54:22.105Z,7.18
2022-08-26T15:59:26.905Z,5.50
2022-08-26T16:04:31.181Z,7.97
2022-08-26T16:09:33.058Z,7.55
2022-08-26T16:14:40.587Z,7.30
2022-08-26T16:19:44.623Z,9.65
2022-08-26T16:24:49.005Z,6.53
2022-08-26T16:29:51.067Z,8.02
2022-08-26T16:34:56.663Z,12.13
2022-08-26T16:40:01.321Z,6.18
2022-08-26T16:45:08.787Z,7.95
2022-08-26T16:50:14.657Z,7.47
2022-08-26T16:55:16.660Z,6.85
2022-08-26T17:00:28.033Z,12.48
2022-08-26T17:05:29.937Z,17.15
2022-08-26T17:10:35.053Z,13.40
2022-08-26T17:15:37.044Z,11.52
2022-08-26T17:20:41.737Z,14.55
2022-08-26T17:25:43.860Z,13.40
2022-08-26T17:30:48.117Z,15.27
2022-08-26T17:35:56.458Z,9.98
2022-08-26T17:41:00.204Z,13.30
2022-08-26T17:46:07.010Z,9.80
2022-08-26T17:51:14.010Z,11.30
2022-08-26T17:56:24.202Z,14.43
2022-08-26T18:01:28.592Z,14.57
2022-08-26T18:06:33.027Z,9.13
2022-08-26T18:11:37.243Z,18.52
2022-08-26T18:16:41.626Z,17.75
2022-08-26T18:21:44.058Z,10.38
2022-08-26T18:26:51.676Z,15.15
2022-08-26T18:31:58.218Z,14.10
2022-08-26T18:36:59.990Z,14.43
2022-08-26T18:42:07.237Z,14.35
2022-08-26T18:47:12.144Z,14.60
2022-08-26T18:52:18.089Z,9.65
2022-08-26T18:57:20.914Z,11.00
2022-08-26T19:02:24.969Z,16.08
2022-08-26T19:07:29.685Z,16.80
2022-08-26T19:12:33.562Z,12.02
2022-08-26T19:17:40.124Z,14.20
2022-08-26T19:22:41.849Z,11.80
2022-08-26T19:27:45.684Z,11.20
2022-08-26T19:32:52.826Z,11.70
2022-08-26T19:37:57.114Z,12.20
2022-08-26T19:43:01.096Z,13.43
2022-08-26T19:48:06.229Z,10.00
2022-08-26T19:53:12.495Z,14.45
2022-08-26T19:58:16.539Z,11.85
2022-08-26T20:03:18.354Z,14.32
2022-08-26T20:08:22.814Z,11.70
2022-08-26T20:13:26.958Z,14.15
2022-08-26T20:18:49.473Z,9.13
2022-08-26T20:23:51.744Z,8.48
2022-08-26T20:28:56.273Z,8.23
2022-08-26T20:34:01.516Z,13.85
2022-08-26T20:39:10.823Z,6.15
2022-08-26T20:44:16.679Z,10.02
2022-08-26T20:49:18.746Z,7.30
2022-08-26T20:54:27.527Z,6.22
2022-08-26T20:59:32.592Z,7.88
2022-08-26T21:04:36.667Z,9.68
2022-08-26T21:09:41.330Z,9.55
2022-08-26T21:14:49.860Z,8.48
2022-08-26T21:19:54.064Z,9.07
2022-08-26T21:24:56.473Z,12.05
2022-08-26T21:30:00.741Z,12.88
2022-08-26T21:35:05.685Z,5.32
2022-08-26T21:40:11.282Z,9.52
2022-08-26T21:45:13.135Z,10.35
2022-08-26T21:50:14.940Z,7.07
2022-08-26T21:55:19.190Z,6.85
2022-08-26T22:00:23.178Z,5.65
2022-08-26T22:05:27.321Z,8.73
2022-08-26T22:10:32.014Z,12.90
2022-08-26T22:15:35.592Z,13.77
2022-08-26T22:20:37.439Z,8.43
2022-08-26T22:25:39.336Z,13.60
2022-08-26T22:30:44.337Z,6.70
2022-08-26T22:35:52.775Z,8.85
2022-08-26T22:41:00.247Z,11.25
2022-08-26T22:46:04.286Z,10.23
2022-08-26T22:51:06.486Z,9.65
2022-08-26T22:56:13.801Z,5.30
2022-08-26T23:01:16.965Z,7.53
2022-08-26T23:06:18.891Z,8.07
2022-08-26T23:11:24.060Z,7.43
2022-08-26T23:16:25.892Z,10.23
2022-08-26T23:21:29.992Z,7.25
2022-08-26T23:26:35.003Z,10.77
2022-08-26T23:31:38.530Z,6.60
2022-08-26T23:36:42.425Z,7.95
2022-08-26T23:41:46.290Z,4.65
2022-08-26T23:46:49.315Z,8.05
2022-08-26T23:52:12.874Z,3.40
2022-08-26T23:57:16.616Z,6.68
